sensor_id;sensor_type;location;lat;lon;timestamp;P1;durP1;ratioP1;P2;durP2;ratioP2
53670;SDS011;39571;48.612;8.088;2023-02-11T07:51:50;27.60;;;14.10;;
53670;SDS011;39571;48.612;8.088;2023-02-11T08:03:39;23.67;;;13.15;;
53670;SDS011;39571;48.612;8.088;2023-02-11T08:16:23;21.17;;;14.13;;
53670;SDS011;39571;48.612;8.088;2023-02-11T08:39:20;25.83;;;15.60;;
53670;SDS011;39571;48.612;8.088;2023-02-11T08:52:10;26.95;;;17.08;;
53670;SDS011;39571;48.612;8.088;2023-02-11T08:54:36;29.05;;;19.40;;
53670;SDS011;39571;48.612;8.088;2023-02-11T09:03:10;23.52;;;16.70;;
53670;SDS011;39571;48.612;8.088;2023-02-11T09:05:46;23.42;;;18.27;;
53670;SDS011;39571;48.612;8.088;2023-02-11T09:08:14;25.40;;;19.98;;
53670;SDS011;39571;48.612;8.088;2023-02-11T09:10:40;23.13;;;17.33;;
53670;SDS011;39571;48.612;8.088;2023-02-11T09:13:06;23.48;;;19.25;;
53670;SDS011;39571;48.612;8.088;2023-02-11T09:15:31;22.92;;;18.52;;
53670;SDS011;39571;48.612;8.088;2023-02-11T09:22:29;23.13;;;19.02;;
53670;SDS011;39571;48.612;8.088;2023-02-11T09:24:55;21.80;;;17.13;;
53670;SDS011;39571;48.612;8.088;2023-02-11T09:27:20;19.90;;;16.40;;
53670;SDS011;39571;48.612;8.088;2023-02-11T09:29:45;22.10;;;16.52;;
53670;SDS011;39571;48.612;8.088;2023-02-11T09:32:11;19.05;;;15.68;;
53670;SDS011;39571;48.612;8.088;2023-02-11T09:34:36;19.17;;;15.88;;
53670;SDS011;39571;48.612;8.088;2023-02-11T09:37:01;16.08;;;11.95;;
53670;SDS011;39571;48.612;8.088;2023-02-11T09:39:27;15.55;;;12.13;;
53670;SDS011;39571;48.612;8.088;2023-02-11T09:44:50;14.43;;;11.35;;
53670;SDS011;39571;48.612;8.088;2023-02-11T09:47:24;15.95;;;11.80;;
53670;SDS011;39571;48.612;8.088;2023-02-11T09:50:04;17.73;;;12.10;;
53670;SDS011;39571;48.612;8.088;2023-02-11T09:52:56;19.52;;;13.15;;
53670;SDS011;39571;48.612;8.088;2023-02-11T09:55:58;17.13;;;12.73;;
53670;SDS011;39571;48.612;8.088;2023-02-11T09:58:31;17.52;;;13.57;;
53670;SDS011;39571;48.612;8.088;2023-02-11T10:03:54;17.85;;;14.40;;
53670;SDS011;39571;48.612;8.088;2023-02-11T10:06:52;19.17;;;14.15;;
53670;SDS011;39571;48.612;8.088;2023-02-11T10:12:56;20.40;;;15.77;;
53670;SDS011;39571;48.612;8.088;2023-02-11T10:15:20;20.92;;;15.77;;
53670;SDS011;39571;48.612;8.088;2023-02-11T10:23:43;22.58;;;16.20;;
53670;SDS011;39571;48.612;8.088;2023-02-11T10:26:12;22.20;;;16.10;;
53670;SDS011;39571;48.612;8.088;2023-02-11T10:28:40;24.05;;;15.82;;
53670;SDS011;39571;48.612;8.088;2023-02-11T10:31:12;20.95;;;15.52;;
53670;SDS011;39571;48.612;8.088;2023-02-11T10:36:35;21.63;;;15.85;;
53670;SDS011;39571;48.612;8.088;2023-02-11T10:39:10;22.17;;;15.82;;
53670;SDS011;39571;48.612;8.088;2023-02-11T10:41:52;21.40;;;15.60;;
53670;SDS011;39571;48.612;8.088;2023-02-11T10:44:22;20.27;;;14.70;;
53670;SDS011;39571;48.612;8.088;2023-02-11T10:46:51;20.20;;;14.98;;
53670;SDS011;39571;48.612;8.088;2023-02-11T10:49:35;22.73;;;15.55;;
53670;SDS011;39571;48.612;8.088;2023-02-11T10:57:29;21.70;;;15.65;;
53670;SDS011;39571;48.612;8.088;2023-02-11T11:00:14;19.30;;;14.88;;
53670;SDS011;39571;48.612;8.088;2023-02-11T11:02:55;22.15;;;15.68;;
53670;SDS011;39571;48.612;8.088;2023-02-11T11:05:26;22.60;;;15.85;;
53670;SDS011;39571;48.612;8.088;2023-02-11T11:07:59;23.48;;;15.52;;
53670;SDS011;39571;48.612;8.088;2023-02-11T11:13:25;22.63;;;17.02;;
53670;SDS011;39571;48.612;8.088;2023-02-11T11:18:36;22.67;;;16.05;;
53670;SDS011;39571;48.612;8.088;2023-02-11T11:21:10;25.63;;;17.83;;
53670;SDS011;39571;48.612;8.088;2023-02-11T11:23:52;27.13;;;18.13;;
53670;SDS011;39571;48.612;8.088;2023-02-11T11:26:21;22.73;;;17.25;;
53670;SDS011;39571;48.612;8.088;2023-02-11T11:31:54;27.35;;;18.65;;
53670;SDS011;39571;48.612;8.088;2023-02-11T11:34:38;26.95;;;18.77;;
53670;SDS011;39571;48.612;8.088;2023-02-11T11:37:16;26.58;;;19.15;;
53670;SDS011;39571;48.612;8.088;2023-02-11T11:39:56;28.17;;;19.77;;
53670;SDS011;39571;48.612;8.088;2023-02-11T11:42:30;23.52;;;17.33;;
53670;SDS011;39571;48.612;8.088;2023-02-11T11:48:07;23.10;;;17.45;;
53670;SDS011;39571;48.612;8.088;2023-02-11T11:50:51;22.05;;;16.15;;
53670;SDS011;39571;48.612;8.088;2023-02-11T11:53:23;22.02;;;16.42;;
53670;SDS011;39571;48.612;8.088;2023-02-11T11:58:40;22.98;;;17.35;;
53670;SDS011;39571;48.612;8.088;2023-02-11T12:12:39;12.70;;;9.35;;
53670;SDS011;39571;48.612;8.088;2023-02-11T12:21:27;12.95;;;9.77;;
53670;SDS011;39571;48.612;8.088;2023-02-11T12:24:53;13.25;;;9.98;;
53670;SDS011;39571;48.612;8.088;2023-02-11T12:27:02;15.30;;;10.43;;
53670;SDS011;39571;48.612;8.088;2023-02-11T12:30:40;16.25;;;11.02;;
53670;SDS011;39571;48.612;8.088;2023-02-11T12:36:40;15.30;;;10.88;;
53670;SDS011;39571;48.612;8.088;2023-02-11T12:45:04;14.98;;;10.05;;
53670;SDS011;39571;48.612;8.088;2023-02-11T12:55:57;14.88;;;10.82;;
53670;SDS011;39571;48.612;8.088;2023-02-11T12:58:29;16.00;;;10.83;;
53670;SDS011;39571;48.612;8.088;2023-02-11T13:01:03;15.35;;;10.88;;
53670;SDS011;39571;48.612;8.088;2023-02-11T13:03:44;16.17;;;12.18;;
53670;SDS011;39571;48.612;8.088;2023-02-11T13:06:13;18.70;;;12.23;;
53670;SDS011;39571;48.612;8.088;2023-02-11T13:08:44;16.27;;;12.10;;
53670;SDS011;39571;48.612;8.088;2023-02-11T13:11:14;17.45;;;13.25;;
53670;SDS011;39571;48.612;8.088;2023-02-11T13:21:54;23.80;;;15.15;;
53670;SDS011;39571;48.612;8.088;2023-02-11T13:24:43;21.30;;;14.27;;
53670;SDS011;39571;48.612;8.088;2023-02-11T13:30:30;19.85;;;14.82;;
53670;SDS011;39571;48.612;8.088;2023-02-11T13:35:37;20.00;;;14.45;;
53670;SDS011;39571;48.612;8.088;2023-02-11T13:38:25;17.73;;;14.00;;
53670;SDS011;39571;48.612;8.088;2023-02-11T13:43:32;21.10;;;14.45;;
53670;SDS011;39571;48.612;8.088;2023-02-11T13:46:00;47.10;;;27.10;;
53670;SDS011;39571;48.612;8.088;2023-02-11T13:48:34;28.52;;;18.65;;
53670;SDS011;39571;48.612;8.088;2023-02-11T13:51:05;21.02;;;15.20;;
53670;SDS011;39571;48.612;8.088;2023-02-11T13:53:48;19.67;;;14.02;;
53670;SDS011;39571;48.612;8.088;2023-02-11T13:56:30;19.42;;;14.00;;
53670;SDS011;39571;48.612;8.088;2023-02-11T13:59:04;18.25;;;13.00;;
53670;SDS011;39571;48.612;8.088;2023-02-11T14:10:55;20.63;;;15.02;;
53670;SDS011;39571;48.612;8.088;2023-02-11T14:13:36;20.25;;;15.65;;
53670;SDS011;39571;48.612;8.088;2023-02-11T14:16:36;21.52;;;15.65;;
53670;SDS011;39571;48.612;8.088;2023-02-11T14:19:35;19.08;;;15.30;;
53670;SDS011;39571;48.612;8.088;2023-02-11T14:27:00;22.50;;;15.55;;
53670;SDS011;39571;48.612;8.088;2023-02-11T14:34:50;19.98;;;14.77;;
53670;SDS011;39571;48.612;8.088;2023-02-11T14:37:29;21.98;;;15.25;;
53670;SDS011;39571;48.612;8.088;2023-02-11T14:40:22;20.15;;;15.13;;
53670;SDS011;39571;48.612;8.088;2023-02-11T14:42:53;20.45;;;14.95;;
53670;SDS011;39571;48.612;8.088;2023-02-11T14:45:22;22.15;;;15.63;;
53670;SDS011;39571;48.612;8.088;2023-02-11T14:47:56;20.70;;;15.13;;
53670;SDS011;39571;48.612;8.088;2023-02-11T14:50:31;20.77;;;14.55;;
53670;SDS011;39571;48.612;8.088;2023-02-11T14:52:59;20.38;;;15.45;;
53670;SDS011;39571;48.612;8.088;2023-02-11T14:55:32;20.08;;;15.15;;
53670;SDS011;39571;48.612;8.088;2023-02-11T14:58:05;20.83;;;14.85;;
53670;SDS011;39571;48.612;8.088;2023-02-11T15:00:31;21.05;;;14.68;;
53670;SDS011;39571;48.612;8.088;2023-02-11T15:02:56;22.20;;;14.20;;
53670;SDS011;39571;48.612;8.088;2023-02-11T15:05:24;19.48;;;14.27;;
53670;SDS011;39571;48.612;8.088;2023-02-11T15:07:55;18.40;;;14.23;;
53670;SDS011;39571;48.612;8.088;2023-02-11T15:10:27;20.98;;;14.85;;
53670;SDS011;39571;48.612;8.088;2023-02-11T15:12:57;21.10;;;15.13;;
53670;SDS011;39571;48.612;8.088;2023-02-11T15:15:24;19.65;;;14.93;;
53670;SDS011;39571;48.612;8.088;2023-02-11T15:17:50;21.20;;;14.95;;
53670;SDS011;39571;48.612;8.088;2023-02-11T15:20:27;21.08;;;15.27;;
53670;SDS011;39571;48.612;8.088;2023-02-11T15:23:03;22.75;;;15.75;;
53670;SDS011;39571;48.612;8.088;2023-02-11T15:25:31;20.88;;;15.25;;
53670;SDS011;39571;48.612;8.088;2023-02-11T15:27:57;19.73;;;15.10;;
53670;SDS011;39571;48.612;8.088;2023-02-11T15:32:49;18.92;;;14.73;;
53670;SDS011;39571;48.612;8.088;2023-02-11T15:35:22;22.20;;;16.05;;
53670;SDS011;39571;48.612;8.088;2023-02-11T15:37:49;22.42;;;15.93;;
53670;SDS011;39571;48.612;8.088;2023-02-11T15:40:16;21.40;;;15.02;;
53670;SDS011;39571;48.612;8.088;2023-02-11T15:45:30;20.45;;;15.85;;
53670;SDS011;39571;48.612;8.088;2023-02-11T15:48:11;21.92;;;16.65;;
53670;SDS011;39571;48.612;8.088;2023-02-11T15:50:37;20.65;;;16.20;;
53670;SDS011;39571;48.612;8.088;2023-02-11T15:53:14;25.80;;;19.25;;
53670;SDS011;39571;48.612;8.088;2023-02-11T15:55:48;32.70;;;22.02;;
53670;SDS011;39571;48.612;8.088;2023-02-11T15:58:15;38.35;;;27.08;;
53670;SDS011;39571;48.612;8.088;2023-02-11T16:00:47;39.47;;;27.52;;
53670;SDS011;39571;48.612;8.088;2023-02-11T16:03:21;37.15;;;26.08;;
53670;SDS011;39571;48.612;8.088;2023-02-11T16:05:48;33.92;;;25.13;;
53670;SDS011;39571;48.612;8.088;2023-02-11T16:08:32;26.83;;;18.85;;
53670;SDS011;39571;48.612;8.088;2023-02-11T16:11:00;25.50;;;17.92;;
53670;SDS011;39571;48.612;8.088;2023-02-11T16:13:32;22.95;;;16.40;;
53670;SDS011;39571;48.612;8.088;2023-02-11T16:16:42;20.52;;;15.35;;
53670;SDS011;39571;48.612;8.088;2023-02-11T16:19:00;22.35;;;16.08;;
53670;SDS011;39571;48.612;8.088;2023-02-11T16:21:40;28.65;;;21.02;;
53670;SDS011;39571;48.612;8.088;2023-02-11T16:24:23;26.75;;;20.67;;
